Time;durP1;ratioP1;P1;durP2;ratioP2;P2;SDS_P1;SDS_P2;PMS_P1;PMS_P2;Temp;Humidity;BMP_temperature;BMP_pressure;BME280_temperature;BME280_humidity;BME280_pressure;Samples;Min_cycle;Max_cycle;Signal;HPM_P1;HPM_P2
2022/06/20 00:00:45;;;;;;;10.38;1.73;;;;;;;20.58;49.50;101448.97;4977877;28;20038;-68
2022/06/20 00:03:21;;;;;;;3.78;1.13;;;;;;;20.65;49.64;101465.88;4983130;28;20122;-69
2022/06/20 00:05:46;;;;;;;6.07;1.60;;;;;;;20.46;49.99;101443.78;4975028;28;20042;-67
2022/06/20 00:08:11;;;;;;;5.22;1.67;;;;;;;20.17;51.46;101438.06;4982935;28;20372;-67
2022/06/20 00:10:41;;;;;;;9.38;2.03;;;;;;;19.87;51.49;101445.44;4984132;28;20635;-69
2022/06/20 00:13:15;;;;;;;3.53;1.50;;;;;;;20.34;50.79;101442.44;4974222;28;20039;-69
2022/06/20 00:15:41;;;;;;;11.88;2.13;;;;;;;20.40;51.86;101453.06;4974444;28;20054;-68
2022/06/20 00:18:07;;;;;;;7.63;1.63;;;;;;;20.44;50.87;101462.34;4977838;28;20022;-66
2022/06/20 00:20:33;;;;;;;7.22;1.52;;;;;;;20.42;50.70;101452.81;4985450;28;20042;-68
2022/06/20 00:22:58;;;;;;;8.05;2.10;;;;;;;20.40;51.43;101449.53;4977247;28;20043;-68
2022/06/20 00:25:25;;;;;;;4.93;2.00;;;;;;;20.48;51.06;101451.72;4975750;28;20118;-69
2022/06/20 00:27:53;;;;;;;4.10;1.38;;;;;;;20.43;51.51;101465.34;4974018;28;20593;-68
2022/06/20 00:30:19;;;;;;;12.30;1.90;;;;;;;20.55;51.08;101474.91;5002846;28;20054;-68
2022/06/20 00:32:45;;;;;;;6.95;1.55;;;;;;;20.49;51.31;101473.28;4981054;28;20449;-68
2022/06/20 00:35:10;;;;;;;3.55;1.20;;;;;;;20.52;51.60;101469.97;4976675;28;20042;-67
2022/06/20 00:37:36;;;;;;;8.48;1.40;;;;;;;20.57;51.12;101467.25;4974625;28;20039;-67
2022/06/20 00:40:05;;;;;;;9.57;1.83;;;;;;;20.53;51.76;101463.44;4974043;28;20577;-67
2022/06/20 00:42:30;;;;;;;7.15;1.67;;;;;;;20.51;51.97;101464.81;4984095;28;20042;-68
2022/06/20 00:45:01;;;;;;;8.13;1.50;;;;;;;20.45;51.99;101460.44;4977889;28;20018;-66
2022/06/20 00:47:31;;;;;;;7.35;1.48;;;;;;;20.38;52.28;101468.09;4979224;28;20035;-68
2022/06/20 00:50:12;;;;;;;6.22;1.65;;;;;;;20.35;52.05;101474.09;4979468;28;20506;-68
2022/06/20 00:52:48;;;;;;;10.30;1.83;;;;;;;20.28;52.69;101479.84;4978543;28;20030;-68
2022/06/20 00:55:18;;;;;;;14.40;1.67;;;;;;;20.18;52.24;101471.63;4977648;28;20053;-66
2022/06/20 00:57:49;;;;;;;5.88;1.77;;;;;;;20.10;52.60;101472.19;4990261;28;20046;-68
2022/06/20 01:00:23;;;;;;;9.45;2.05;;;;;;;20.28;51.37;101462.66;4982739;28;20042;-67
2022/06/20 01:02:53;;;;;;;13.20;2.20;;;;;;;20.03;52.21;101466.16;4975614;28;20034;-68
2022/06/20 01:05:39;;;;;;;13.50;2.10;;;;;;;20.38;51.01;101468.94;4979581;28;20043;-67
2022/06/20 01:08:29;;;;;;;8.68;1.88;;;;;;;20.54;50.85;101456.88;4973618;28;20046;-68
2022/06/20 01:11:07;;;;;;;5.47;1.85;;;;;;;20.23;51.52;101465.38;4977055;28;20031;-68
2022/06/20 01:13:32;;;;;;;9.75;1.90;;;;;;;20.19;51.77;101469.72;4976588;28;20038;-68
2022/06/20 01:16:13;;;;;;;8.85;1.83;;;;;;;20.24;51.50;101470.56;4980640;28;20089;-69
2022/06/20 01:18:40;;;;;;;8.10;2.58;;;;;;;20.24;51.06;101473.31;4975569;28;20158;-67
2022/06/20 01:21:12;;;;;;;10.25;2.55;;;;;;;20.60;50.51;101476.81;4981726;28;20034;-68
2022/06/20 01:23:49;;;;;;;5.75;1.92;;;;;;;19.80;53.07;101485.78;4974929;28;20035;-66
2022/06/20 01:26:33;;;;;;;7.13;2.08;;;;;;;20.05;51.90;101494.81;4979935;28;20047;-67
2022/06/20 01:29:02;;;;;;;7.82;1.50;;;;;;;20.45;51.19;101502.22;4972674;28;20039;-68
2022/06/20 01:31:37;;;;;;;5.85;1.92;;;;;;;20.77;49.91;101494.53;4986305;28;21870;-66
2022/06/20 01:34:03;;;;;;;5.82;1.77;;;;;;;20.76;49.61;101505.72;4976776;28;20049;-67
2022/06/20 01:39:16;;;;;;;8.13;2.33;;;;;;;20.53;50.47;101509.88;4974785;28;20073;-66
2022/06/20 01:44:31;;;;;;;5.63;1.35;;;;;;;20.16;51.34;101503.84;4977361;28;20041;-69
2022/06/20 01:46:56;;;;;;;5.63;1.70;;;;;;;19.97;52.09;101509.00;4983751;28;20154;-66
2022/06/20 01:49:24;;;;;;;9.75;2.85;;;;;;;19.87;52.18;101513.63;4976293;28;20042;-69
2022/06/20 01:51:58;;;;;;;7.22;2.13;;;;;;;19.73;52.57;101523.41;4974665;28;20038;-66
2022/06/20 01:54:28;;;;;;;8.18;2.53;;;;;;;19.68;52.63;101517.94;4975268;28;20363;-67
2022/06/20 01:56:54;;;;;;;7.15;2.30;;;;;;;19.87;51.99;101528.06;4975931;28;20073;-68
2022/06/20 01:59:24;;;;;;;9.25;2.22;;;;;;;19.82;52.05;101536.25;4975220;28;20050;-67
2022/06/20 02:01:52;;;;;;;6.43;1.42;;;;;;;19.85;52.25;101540.38;4981136;28;20080;-68
2022/06/20 02:04:21;;;;;;;8.95;2.78;;;;;;;20.39;50.87;101543.44;4980729;28;20065;-69
2022/06/20 02:06:48;;;;;;;11.35;2.42;;;;;;;18.70;55.12;101556.94;4975107;28;20051;-69
2022/06/20 02:09:14;;;;;;;15.10;2.05;;;;;;;19.49;53.67;101557.69;4985829;28;20038;-68
2022/06/20 02:11:43;;;;;;;14.13;2.05;;;;;;;19.44;53.61;101550.31;4985167;28;20035;-69
2022/06/20 02:14:17;;;;;;;7.25;2.10;;;;;;;19.74;52.16;101539.50;4978350;28;20031;-67
2022/06/20 02:16:49;;;;;;;5.95;1.77;;;;;;;19.99;51.71;101542.28;4976615;28;20031;-68
2022/06/20 02:19:19;;;;;;;7.25;2.33;;;;;;;20.15;51.06;101540.41;4972199;28;20039;-67
2022/06/20 02:21:46;;;;;;;5.57;1.30;;;;;;;20.43;50.13;101544.53;4973958;28;20534;-66
2022/06/20 02:24:16;;;;;;;4.80;1.60;;;;;;;20.57;49.77;101534.69;4975078;28;20471;-67
2022/06/20 02:26:45;;;;;;;6.43;1.60;;;;;;;20.25;50.35;101532.25;4978587;28;20036;-66
2022/06/20 02:29:23;;;;;;;7.88;1.58;;;;;;;19.99;51.29;101525.09;4980707;28;20035;-67
2022/06/20 02:31:53;;;;;;;6.00;1.40;;;;;;;20.48;49.67;101523.50;4975633;28;20038;-67
2022/06/20 02:34:20;;;;;;;5.13;1.38;;;;;;;20.05;50.86;101522.09;4988941;28;20081;-68
2022/06/20 02:36:45;;;;;;;10.82;2.65;;;;;;;20.48;49.69;101526.22;4977168;28;20497;-67
2022/06/20 02:39:11;;;;;;;11.55;1.77;;;;;;;20.34;50.12;101527.91;4977541;28;20054;-68
2022/06/20 02:41:38;;;;;;;5.47;1.55;;;;;;;20.39;49.94;101525.16;4983211;28;20053;-67
2022/06/20 02:44:10;;;;;;;8.40;1.85;;;;;;;20.28;50.14;101522.69;4991306;28;20065;-68
2022/06/20 02:46:37;;;;;;;3.88;1.70;;;;;;;20.52;50.30;101518.34;4973217;28;20097;-67
2022/06/20 02:49:09;;;;;;;15.68;1.70;;;;;;;20.29;51.13;101524.31;4975486;28;20039;-68
2022/06/20 02:51:38;;;;;;;5.35;2.15;;;;;;;20.38;51.39;101520.81;4970822;28;20043;-68
2022/06/20 02:54:07;;;;;;;14.57;2.25;;;;;;;20.54;50.69;101530.59;4972236;28;20422;-68
2022/06/20 02:56:41;;;;;;;5.13;1.90;;;;;;;20.51;51.30;101527.59;4971800;28;20038;-69
2022/06/20 02:59:15;;;;;;;7.40;1.90;;;;;;;20.67;50.85;101530.06;4970854;28;20522;-67
2022/06/20 03:02:02;;;;;;;6.75;1.95;;;;;;;20.49;50.89;101521.59;4970599;28;20038;-68
2022/06/20 03:04:31;;;;;;;4.82;2.38;;;;;;;20.47;50.80;101532.81;4971832;28;20077;-67
2022/06/20 03:07:01;;;;;;;8.98;1.58;;;;;;;20.45;51.02;101528.69;4974454;28;20034;-67
2022/06/20 03:09:31;;;;;;;6.20;1.75;;;;;;;20.40;51.45;101531.44;4983804;28;20402;-68
2022/06/20 03:11:57;;;;;;;6.70;1.67;;;;;;;20.38;51.53;101525.44;4982289;28;20442;-68
2022/06/20 03:14:42;;;;;;;5.85;2.28;;;;;;;20.68;50.83;101519.94;4981959;28;20089;-71
2022/06/20 03:17:08;;;;;;;10.30;2.00;;;;;;;20.69;50.95;101525.16;4977350;28;20459;-72
2022/06/20 03:19:38;;;;;;;10.88;2.10;;;;;;;20.79;50.67;101527.84;4979063;28;20391;-68
2022/06/20 03:22:07;;;;;;;12.07;2.97;;;;;;;20.80;50.74;101529.47;4981233;28;20647;-68
2022/06/20 03:24:35;;;;;;;5.80;1.63;;;;;;;20.78;50.71;101518.00;4976143;28;20035;-70
2022/06/20 03:27:02;;;;;;;8.18;1.90;;;;;;;20.84;50.46;101510.63;4982024;28;20057;-68
2022/06/20 03:29:28;;;;;;;7.07;2.75;;;;;;;20.85;50.94;101509.53;4985461;28;20579;-67
2022/06/20 03:31:54;;;;;;;8.90;2.40;;;;;;;20.79;50.81;101503.28;4978957;28;20126;-68
2022/06/20 03:34:21;;;;;;;6.60;2.40;;;;;;;20.42;51.80;101504.69;5009660;28;20050;-67
2022/06/20 03:36:48;;;;;;;5.40;1.88;;;;;;;20.53;51.29;101496.22;4976163;28;20038;-67
2022/06/20 03:39:17;;;;;;;7.80;1.85;;;;;;;20.46;51.67;101487.47;4979651;28;20569;-67
2022/06/20 03:41:43;;;;;;;9.23;2.45;;;;;;;20.42;51.31;101482.84;4978336;28;20054;-68
2022/06/20 03:44:15;;;;;;;9.05;1.95;;;;;;;20.32;51.27;101478.22;4981692;28;20035;-68
2022/06/20 03:46:55;;;;;;;10.93;2.60;;;;;;;20.24;51.53;101481.50;4977083;28;20074;-68
2022/06/20 03:49:27;;;;;;;9.80;1.70;;;;;;;20.15;51.51;101489.38;4983598;28;20037;-69
2022/06/20 03:52:08;;;;;;;10.38;1.98;;;;;;;20.05;52.37;101483.91;4979451;28;20468;-67
2022/06/20 03:54:38;;;;;;;;;;;;;;;19.98;52.56;101477.91;4980753;28;20558;-68
2022/06/20 03:57:17;;;;;;;12.25;2.45;;;;;;;19.92;52.84;101461.78;4983063;28;19914;-67
2022/06/20 03:59:52;;;;;;;3.30;1.92;;;;;;;19.93;52.88;101460.72;4982803;28;20039;-67
2022/06/20 04:02:36;;;;;;;6.13;2.30;;;;;;;19.94;53.29;101462.34;4980286;28;20450;-67
2022/06/20 04:05:20;;;;;;;9.82;2.28;;;;;;;19.86;53.52;101457.41;4980249;28;20169;-67
2022/06/20 04:07:53;;;;;;;7.22;2.05;;;;;;;19.80;53.82;101464.78;4972567;28;20529;-68
2022/06/20 04:13:21;;;;;;;8.40;2.03;;;;;;;19.96;52.31;101463.72;4973722;28;20066;-69
2022/06/20 04:16:02;;;;;;;9.88;1.75;;;;;;;19.93;53.08;101458.78;4982271;28;20034;-68
2022/06/20 04:19:06;;;;;;;11.60;2.10;;;;;;;20.01;52.76;101452.78;4981585;28;20043;-69
2022/06/20 04:21:56;;;;;;;7.55;1.80;;;;;;;20.03;52.29;101455.25;4979218;28;20041;-67
2022/06/20 04:24:39;;;;;;;6.28;1.80;;;;;;;19.86;53.06;101454.69;4982037;28;20430;-69
2022/06/20 04:27:07;;;;;;;5.30;1.85;;;;;;;19.51;53.13;101457.38;4980808;28;20066;-69
2022/06/20 04:29:46;;;;;;;6.63;1.92;;;;;;;19.95;52.11;101459.34;4978137;28;20498;-67
2022/06/20 04:32:20;;;;;;;6.55;1.50;;;;;;;19.88;51.76;101453.34;4977848;28;20034;-67
2022/06/20 04:34:58;;;;;;;3.10;1.40;;;;;;;19.26;52.37;101455.38;4973508;28;20042;-67
2022/06/20 04:37:34;;;;;;;8.52;1.50;;;;;;;19.68;51.37;101460.66;4973326;28;20297;-68
2022/06/20 04:40:04;;;;;;;5.78;1.30;;;;;;;19.72;51.12;101456.31;4983838;28;20055;-69
2022/06/20 04:42:49;;;;;;;9.55;1.92;;;;;;;20.19;50.16;101461.53;4980007;28;20055;-68
2022/06/20 04:45:35;;;;;;;12.60;2.72;;;;;;;19.30;51.91;101461.94;4979803;28;20046;-67
2022/06/20 04:48:28;;;;;;;5.88;1.90;;;;;;;19.53;51.53;101461.47;4974824;28;20065;-67
2022/06/20 04:51:05;;;;;;;8.60;1.85;;;;;;;19.36;52.20;101469.03;4971080;28;20054;-70
2022/06/20 04:53:34;;;;;;;11.57;1.98;;;;;;;19.49;51.62;101476.72;4976806;28;20114;-66
2022/06/20 04:56:06;;;;;;;3.15;1.40;;;;;;;19.55;51.68;101474.81;4979487;28;20499;-67
2022/06/20 04:58:41;;;;;;;3.25;1.70;;;;;;;19.04;52.48;101477.34;4977618;28;20038;-68
2022/06/20 05:01:08;;;;;;;3.35;1.67;;;;;;;19.50;51.67;101474.81;4983422;28;20506;-67
2022/06/20 05:03:39;;;;;;;8.55;2.05;;;;;;;20.22;49.94;101469.19;4982076;28;20026;-67
2022/06/20 05:06:09;;;;;;;7.68;1.88;;;;;;;19.83;51.05;101477.88;4985021;28;20034;-67
2022/06/20 05:08:40;;;;;;;4.88;1.92;;;;;;;18.86;52.95;101482.41;4977016;28;20100;-67
2022/06/20 05:11:16;;;;;;;8.35;2.00;;;;;;;19.15;52.53;101480.94;4976232;28;20038;-67
2022/06/20 05:13:48;;;;;;;7.95;1.88;;;;;;;18.90;53.33;101480.81;4982867;28;20050;-67
2022/06/20 05:16:22;;;;;;;7.82;2.30;;;;;;;19.47;52.00;101472.63;4974584;28;20557;-67
2022/06/20 05:19:12;;;;;;;10.05;2.28;;;;;;;20.05;50.32;101480.34;4977908;28;20042;-67
2022/06/20 05:21:44;;;;;;;4.03;1.33;;;;;;;19.23;52.11;101494.88;4979000;28;20062;-67
2022/06/20 05:24:16;;;;;;;11.20;2.17;;;;;;;19.55;51.25;101492.00;4996218;28;20468;-68
2022/06/20 05:26:45;;;;;;;8.95;1.88;;;;;;;19.54;50.97;101505.88;4982558;28;20039;-67
2022/06/20 05:29:29;;;;;;;7.18;2.08;;;;;;;19.13;52.43;101489.38;4980578;28;20261;-66
2022/06/20 05:31:57;;;;;;;14.98;2.20;;;;;;;19.04;52.80;101498.31;4972228;28;20169;-69
2022/06/20 05:34:35;;;;;;;11.80;2.10;;;;;;;19.59;51.53;101503.19;4984175;28;20038;-68
2022/06/20 05:37:17;;;;;;;7.97;2.00;;;;;;;19.64;50.41;101508.66;4983888;28;20153;-67
2022/06/20 05:39:54;;;;;;;9.48;1.98;;;;;;;20.05;49.95;101508.47;4979716;28;20170;-68
2022/06/20 05:42:20;;;;;;;11.90;2.03;;;;;;;19.69;50.72;101508.69;4975303;28;20046;-67
2022/06/20 05:44:46;;;;;;;6.15;1.83;;;;;;;19.27;51.39;101511.50;4980916;28;20027;-69
2022/06/20 05:47:32;;;;;;;6.35;1.92;;;;;;;19.25;51.78;101510.94;4975390;28;20043;-66
2022/06/20 05:50:06;;;;;;;5.80;2.10;;;;;;;19.22;51.86;101509.56;4976944;28;20062;-66
2022/06/20 05:52:33;;;;;;;6.05;2.17;;;;;;;19.59;50.44;101508.66;4977051;28;20039;-67
2022/06/20 05:55:16;;;;;;;7.03;2.22;;;;;;;19.48;50.59;101523.34;4983692;28;20548;-67
2022/06/20 05:57:46;;;;;;;11.48;2.13;;;;;;;19.14;51.52;101533.78;4982478;28;20050;-64
2022/06/20 06:00:16;;;;;;;10.23;2.55;;;;;;;19.68;50.41;101518.75;4985038;28;20034;-62
2022/06/20 06:03:09;;;;;;;7.75;3.17;;;;;;;19.54;50.33;101527.69;4978336;28;20046;-63
2022/06/20 06:05:54;;;;;;;8.27;2.30;;;;;;;19.67;48.82;101533.50;4970834;28;20054;-63
2022/06/20 06:08:24;;;;;;;8.80;2.45;;;;;;;19.82;48.72;101528.06;4976611;28;20053;-63
2022/06/20 06:11:21;;;;;;;6.93;2.10;;;;;;;20.28;47.50;101536.34;4984322;28;20045;-61
2022/06/20 06:13:49;;;;;;;8.35;2.28;;;;;;;20.27;48.04;101545.63;4966517;28;20035;-62
2022/06/20 06:19:44;;;;;;;9.10;2.22;;;;;;;19.70;48.56;101545.75;4963236;28;20054;-63
2022/06/20 06:22:19;;;;;;;7.32;2.20;;;;;;;18.97;50.54;101558.47;4967011;28;20049;-64
2022/06/20 06:24:46;;;;;;;11.88;2.97;;;;;;;19.44;49.45;101550.31;4968766;28;20077;-62
2022/06/20 06:27:37;;;;;;;6.85;2.58;;;;;;;19.64;48.60;101550.38;4968207;28;20049;-64
2022/06/20 06:30:13;;;;;;;16.45;2.80;;;;;;;19.19;50.74;101564.59;4964307;28;20051;-63
2022/06/20 06:32:48;;;;;;;12.20;2.90;;;;;;;20.27;47.94;101560.09;4962042;28;20450;-63
2022/06/20 06:35:48;;;;;;;6.75;2.38;;;;;;;20.30;48.11;101554.09;4967663;28;20042;-63
2022/06/20 06:38:25;;;;;;;11.82;3.30;;;;;;;20.33;48.06;101563.63;4872247;29;20085;-61
2022/06/20 06:40:53;;;;;;;11.15;2.85;;;;;;;19.97;48.81;101566.28;4872351;29;20045;-62
2022/06/20 06:43:37;;;;;;;8.32;2.33;;;;;;;19.52;48.47;101557.97;4872942;29;20409;-63
2022/06/20 06:46:06;;;;;;;6.55;2.50;;;;;;;20.34;46.66;101562.56;4872587;29;20305;-63
2022/06/20 06:48:41;;;;;;;9.98;2.83;;;;;;;20.36;47.32;101557.66;4866973;29;20060;-63
2022/06/20 06:51:16;;;;;;;10.25;2.47;;;;;;;20.76;45.64;101571.28;4892801;29;20044;-63
2022/06/20 06:54:15;;;;;;;10.02;2.67;;;;;;;19.96;47.02;101575.56;4910318;29;20043;-63
2022/06/20 06:56:48;;;;;;;8.00;2.45;;;;;;;19.81;47.35;101569.25;4871659;29;20593;-63
2022/06/20 06:59:20;;;;;;;6.00;2.35;;;;;;;20.33;47.14;101569.09;4861202;29;20546;-64
2022/06/20 07:01:50;;;;;;;4.65;1.92;;;;;;;20.15;47.05;101571.25;4863912;29;20048;-62
2022/06/20 07:04:18;;;;;;;11.38;2.63;;;;;;;20.27;47.32;101565.56;4875050;29;20056;-63
2022/06/20 07:06:55;;;;;;;9.65;2.40;;;;;;;20.85;46.03;101567.72;4869553;29;20148;-63
2022/06/20 07:09:34;;;;;;;6.88;2.85;;;;;;;21.07;45.03;101574.84;4865770;29;20045;-63
2022/06/20 07:12:20;;;;;;;8.18;2.45;;;;;;;21.22;45.04;101577.50;4875067;29;20048;-63
2022/06/20 07:14:59;;;;;;;8.20;2.85;;;;;;;21.26;45.36;101578.59;4924497;29;20131;-63
2022/06/20 07:17:38;;;;;;;8.60;2.55;;;;;;;21.40;44.30;101572.28;4932309;29;20051;-63
2022/06/20 07:20:04;;;;;;;9.60;1.88;;;;;;;21.54;44.30;101577.97;4932247;29;20040;-61
2022/06/20 07:22:30;;;;;;;7.65;2.22;;;;;;;21.32;43.21;101569.28;4932058;29;20116;-63
2022/06/20 07:24:56;;;;;;;13.95;2.85;;;;;;;21.79;42.59;101572.38;4932405;29;20048;-66
2022/06/20 07:27:28;;;;;;;12.50;2.40;;;;;;;21.76;42.96;101568.25;4932525;29;20416;-67
2022/06/20 07:30:10;;;;;;;10.38;2.78;;;;;;;21.83;42.29;101568.00;4932377;29;20046;-69
2022/06/20 07:32:41;;;;;;;6.55;1.92;;;;;;;21.81;42.53;101567.47;4942616;28;20038;-66
2022/06/20 07:35:23;;;;;;;9.07;2.78;;;;;;;21.55;43.10;101574.94;4974640;28;20638;-68
2022/06/20 07:38:03;;;;;;;9.48;3.13;;;;;;;22.23;41.97;101583.34;4973614;28;20042;-69
2022/06/20 07:40:42;;;;;;;10.93;2.10;;;;;;;21.61;43.78;101589.41;4973218;28;20038;-67
2022/06/20 07:43:14;;;;;;;10.00;2.35;;;;;;;20.68;45.42;101591.78;4973170;28;20035;-68
2022/06/20 07:45:47;;;;;;;8.77;1.90;;;;;;;20.94;43.95;101592.56;4973640;28;20034;-67
2022/06/20 07:48:34;;;;;;;8.93;2.35;;;;;;;21.50;43.63;101579.63;4979475;28;20109;-68
2022/06/20 07:51:10;;;;;;;9.15;2.13;;;;;;;21.44;43.63;101580.72;4989664;28;20056;-69
2022/06/20 07:53:52;;;;;;;10.55;2.72;;;;;;;20.67;43.61;101581.97;4976509;28;20046;-66
2022/06/20 07:56:37;;;;;;;6.20;1.50;;;;;;;21.21;40.17;101598.56;4973592;28;20030;-69
2022/06/20 07:59:29;;;;;;;7.72;2.08;;;;;;;20.87;40.22;101603.78;4974693;28;20034;-67
2022/06/20 08:02:36;;;;;;;8.77;1.73;;;;;;;20.76;39.69;101596.69;4973080;28;20046;-68
2022/06/20 08:05:04;;;;;;;8.20;2.20;;;;;;;21.32;37.69;101596.63;4970065;28;20427;-67
2022/06/20 08:07:57;;;;;;;7.00;1.75;;;;;;;21.17;38.51;101588.47;4970346;28;20042;-68
2022/06/20 08:10:28;;;;;;;7.07;1.88;;;;;;;21.47;39.48;101585.63;4969979;28;20041;-69
2022/06/20 08:13:02;;;;;;;7.68;1.88;;;;;;;21.12;41.78;101585.75;4969867;28;20503;-68
2022/06/20 08:15:38;;;;;;;6.50;2.40;;;;;;;22.00;39.22;101576.66;4970087;28;20067;-68
2022/06/20 08:18:04;;;;;;;11.77;2.00;;;;;;;22.36;38.64;101572.56;4970288;28;20043;-63
2022/06/20 08:20:35;;;;;;;7.75;1.65;;;;;;;21.90;40.78;101575.88;4969715;28;20507;-63
2022/06/20 08:23:17;;;;;;;7.53;2.15;;;;;;;21.75;40.32;101582.22;4969518;28;20162;-64
2022/06/20 08:26:00;;;;;;;5.55;2.10;;;;;;;20.81;43.53;101587.69;4969493;28;20109;-63
2022/06/20 08:28:36;;;;;;;2.15;1.40;;;;;;;20.57;43.10;101592.06;4954287;28;20043;-63
2022/06/20 08:31:24;;;;;;;5.75;2.28;;;;;;;20.72;42.94;101597.50;4969598;28;20050;-64
2022/06/20 08:34:31;;;;;;;7.43;1.77;;;;;;;20.53;43.50;101593.69;4969648;28;20050;-63
2022/06/20 08:37:06;;;;;;;5.75;1.90;;;;;;;21.03;41.94;101599.13;4881976;29;20553;-62
2022/06/20 08:39:40;;;;;;;5.03;1.98;;;;;;;21.90;40.67;101598.59;4902391;29;20067;-63
2022/06/20 08:42:59;;;;;;;4.82;1.45;;;;;;;21.13;39.46;101595.59;4912088;29;20127;-61
2022/06/20 08:46:03;;;;;;;6.70;1.45;;;;;;;21.18;40.83;101606.50;4854479;29;20537;-64
2022/06/20 08:48:50;;;;;;;12.20;2.00;;;;;;;20.63;42.07;101599.97;4855032;29;20085;-62
2022/06/20 08:51:33;;;;;;;6.82;1.60;;;;;;;21.73;40.44;101606.31;4855980;29;20423;-63
2022/06/20 08:54:41;;;;;;;4.90;2.03;;;;;;;21.51;40.01;101612.16;4856007;29;20042;-63
2022/06/20 08:57:12;;;;;;;7.43;1.90;;;;;;;21.62;38.78;101612.94;4855165;29;20517;-62
2022/06/20 09:00:06;;;;;;;4.50;1.50;;;;;;;21.89;37.66;101612.56;4855386;29;20042;-64
2022/06/20 09:02:50;;;;;;;4.43;1.48;;;;;;;22.69;35.03;101612.06;4850487;29;20046;-63
2022/06/20 09:05:50;;;;;;;3.95;1.33;;;;;;;22.13;38.39;101608.84;4851325;29;20057;-62
2022/06/20 09:08:15;;;;;;;9.95;1.40;;;;;;;22.61;38.16;101597.06;4855367;29;20041;-61
2022/06/20 09:10:46;;;;;;;6.03;1.85;;;;;;;22.38;38.39;101603.25;4878218;29;20175;-63
2022/06/20 09:13:42;;;;;;;9.73;1.63;;;;;;;22.69;37.95;101604.66;4906686;29;20037;-62
2022/06/20 09:16:46;;;;;;;7.13;1.70;;;;;;;23.24;35.67;101603.28;4893586;29;20120;-63
2022/06/20 09:19:11;;;;;;;6.15;1.35;;;;;;;21.91;36.89;101604.91;4899994;29;20575;-62
2022/06/20 09:21:55;;;;;;;4.30;1.30;;;;;;;21.84;38.37;101610.66;4924523;29;20134;-64
2022/06/20 09:24:24;;;;;;;7.03;1.33;;;;;;;21.38;40.17;101617.41;4919545;29;20036;-66
2022/06/20 09:27:09;;;;;;;6.25;1.70;;;;;;;22.19;39.00;101618.69;4925462;29;20044;-64
2022/06/20 09:29:46;;;;;;;7.85;1.67;;;;;;;22.22;40.47;101609.91;4929336;29;20050;-63
2022/06/20 09:32:33;;;;;;;8.40;1.80;;;;;;;21.57;39.82;101624.72;4926966;29;20099;-63
2022/06/20 09:35:34;;;;;;;5.57;1.25;;;;;;;21.93;37.43;101635.53;4929252;29;20032;-63
2022/06/20 09:37:59;;;;;;;5.03;1.05;;;;;;;21.66;37.33;101625.75;4854483;29;20044;-64
2022/06/20 09:40:37;;;;;;;3.60;1.25;;;;;;;21.56;38.92;101628.53;4854522;29;20045;-64
2022/06/20 09:43:29;;;;;;;7.78;2.28;;;;;;;22.69;37.45;101617.53;4854075;29;20045;-63
2022/06/20 09:46:06;;;;;;;5.05;1.30;;;;;;;23.12;35.40;101632.22;4853469;29;20052;-65
2022/06/20 09:48:37;;;;;;;5.30;1.63;;;;;;;23.23;35.30;101626.34;4854464;29;20046;-64
2022/06/20 09:51:23;;;;;;;5.32;1.23;;;;;;;21.91;37.52;101637.75;4854857;29;20509;-63
2022/06/20 09:54:02;;;;;;;5.63;1.40;;;;;;;21.81;37.88;101631.22;4890970;29;20123;-62
2022/06/20 09:56:41;;;;;;;4.65;1.17;;;;;;;22.21;36.86;101640.31;4906958;29;20298;-63
2022/06/20 09:59:32;;;;;;;8.30;1.15;;;;;;;22.68;35.19;101627.66;4903438;29;20111;-62
2022/06/20 10:02:19;;;;;;;6.05;1.15;;;;;;;22.48;35.66;101635.22;4919464;29;20035;-63
2022/06/20 10:04:45;;;;;;;8.43;1.85;;;;;;;22.81;36.28;101626.22;4927551;29;20190;-63
2022/06/20 10:07:17;;;;;;;8.35;1.42;;;;;;;21.71;39.02;101631.22;4927436;29;20153;-62
2022/06/20 10:09:54;;;;;;;7.97;1.30;;;;;;;22.53;37.94;101640.63;4928190;29;20050;-62
2022/06/20 10:12:43;;;;;;;8.50;1.58;;;;;;;22.51;37.24;101646.41;4923029;29;20035;-65
2022/06/20 10:15:50;;;;;;;3.17;0.80;;;;;;;23.46;34.96;101644.78;4961837;28;20050;-66
2022/06/20 10:18:49;;;;;;;4.22;1.52;;;;;;;22.30;37.35;101653.13;4971062;28;20051;-69
2022/06/20 10:21:30;;;;;;;7.57;1.60;;;;;;;22.45;37.35;101661.25;4971947;28;20105;-67
2022/06/20 10:24:23;;;;;;;5.88;1.45;;;;;;;21.55;40.73;101662.47;4984892;28;20054;-69
2022/06/20 10:27:06;;;;;;;7.97;1.52;;;;;;;21.73;40.72;101658.31;4986022;28;20511;-67
2022/06/20 10:29:58;;;;;;;7.82;1.50;;;;;;;21.26;41.65;101675.13;4970915;28;20353;-68
2022/06/20 10:32:55;;;;;;;7.45;1.63;;;;;;;21.53;40.69;101677.50;4974437;28;20088;-68
2022/06/20 10:35:39;;;;;;;5.65;1.50;;;;;;;22.96;38.96;101669.91;4972412;28;20039;-67
2022/06/20 10:38:12;;;;;;;3.00;1.20;;;;;;;23.03;36.34;101678.66;4983298;28;20053;-67
2022/06/20 10:41:02;;;;;;;4.47;1.40;;;;;;;23.96;35.23;101657.06;4985430;28;20062;-66
2022/06/20 10:44:03;;;;;;;3.20;1.20;;;;;;;23.49;36.54;101673.56;4974191;28;20046;-67
2022/06/20 10:46:54;;;;;;;4.82;1.30;;;;;;;22.43;36.94;101660.72;4979897;28;20397;-66
2022/06/20 10:49:48;;;;;;;6.47;1.13;;;;;;;22.58;37.57;101663.38;4974473;28;20443;-67
2022/06/20 10:52:52;;;;;;;5.32;1.58;;;;;;;23.51;37.04;101652.94;4981724;28;20418;-67
2022/06/20 10:55:36;;;;;;;6.20;1.25;;;;;;;23.71;35.10;101653.81;4970012;28;20116;-67
2022/06/20 10:58:26;;;;;;;4.80;1.17;;;;;;;22.50;37.53;101669.44;4971073;28;20046;-67
2022/06/20 11:01:11;;;;;;;5.18;1.13;;;;;;;21.93;39.55;101676.59;4966146;28;20043;-68
2022/06/20 11:03:46;;;;;;;5.30;1.48;;;;;;;22.12;39.25;101674.84;4970149;28;20030;-67
2022/06/20 11:06:20;;;;;;;9.75;1.45;;;;;;;23.82;36.55;101664.38;4970848;28;20532;-66
2022/06/20 11:09:10;;;;;;;7.35;1.45;;;;;;;23.53;37.01;101671.88;4969114;28;20046;-68
2022/06/20 11:11:49;;;;;;;8.90;1.60;;;;;;;23.95;35.30;101669.19;4970219;28;20057;-68
2022/06/20 11:14:21;;;;;;;4.82;1.45;;;;;;;24.14;33.89;101666.47;4969788;28;20039;-67
2022/06/20 11:17:17;;;;;;;2.55;0.93;;;;;;;23.59;35.31;101672.66;4971118;28;20050;-67
2022/06/20 11:20:04;;;;;;;5.43;1.15;;;;;;;22.69;38.04;101677.81;4969802;28;20039;-67
2022/06/20 11:22:34;;;;;;;6.63;1.60;;;;;;;22.48;39.09;101698.22;4970076;28;20097;-69
2022/06/20 11:25:24;;;;;;;7.38;1.35;;;;;;;22.77;37.83;101679.97;4970319;28;20043;-69
2022/06/20 11:27:50;;;;;;;6.75;1.70;;;;;;;23.08;37.96;101678.59;4970289;28;20666;-67
2022/06/20 11:30:44;;;;;;;7.13;1.52;;;;;;;23.08;37.58;101675.03;4970750;28;20062;-67
2022/06/20 11:34:00;;;;;;;6.25;1.40;;;;;;;23.52;37.59;101668.31;4980103;28;20070;-68
2022/06/20 11:36:39;;;;;;;3.88;1.25;;;;;;;22.62;38.65;101680.06;4974960;28;20035;-68
2022/06/20 11:39:26;;;;;;;9.00;2.17;;;;;;;24.28;35.08;101678.38;5008857;28;20537;-69
2022/06/20 11:42:26;;;;;;;6.10;1.45;;;;;;;24.03;35.58;101673.22;4982590;28;20050;-68
2022/06/20 11:45:13;;;;;;;5.38;1.20;;;;;;;24.03;34.61;101668.56;4980565;28;20466;-67
2022/06/20 11:47:49;;;;;;;3.75;1.23;;;;;;;23.29;36.59;101668.25;4978881;28;20503;-67
2022/06/20 11:50:28;;;;;;;9.38;0.90;;;;;;;23.53;37.07;101664.47;4978287;28;20042;-69
2022/06/20 11:52:56;;;;;;;4.13;1.40;;;;;;;24.74;34.72;101665.63;4986091;28;20038;-67
2022/06/20 11:55:34;;;;;;;4.97;1.20;;;;;;;24.65;33.99;101681.09;4987291;28;20125;-67
2022/06/20 11:58:10;;;;;;;7.70;1.63;;;;;;;24.74;34.10;101665.63;4985887;28;20030;-67
2022/06/20 12:00:48;;;;;;;7.38;2.10;;;;;;;24.42;35.12;101671.84;4986958;28;20132;-68
2022/06/20 12:03:19;;;;;;;4.78;1.73;;;;;;;23.51;35.80;101671.34;4975009;28;20372;-68
2022/06/20 12:05:54;;;;;;;6.70;1.58;;;;;;;24.67;33.58;101670.63;4972620;28;20323;-67
2022/06/20 12:08:22;;;;;;;9.25;1.92;;;;;;;24.34;34.02;101680.75;4972669;28;20031;-69
2022/06/20 12:10:58;;;;;;;5.05;1.10;;;;;;;24.84;32.18;101670.97;4974048;28;20054;-70
2022/06/20 12:13:46;;;;;;;5.10;1.13;;;;;;;24.78;31.90;101676.81;4972460;28;20047;-68
2022/06/20 12:16:28;;;;;;;6.20;1.55;;;;;;;24.40;33.05;101679.56;4975893;28;20038;-69
2022/06/20 12:24:43;;;;;;;6.55;1.67;;;;;;;23.18;35.64;101705.09;4981917;28;20392;-68
2022/06/20 12:27:15;;;;;;;5.25;1.38;;;;;;;23.88;34.13;101681.63;4974287;28;20031;-69